Time,TemperatureF,DewpointF,PressureIn,WindDirection,WindDirectionDegrees,WindSpeedMPH,WindSpeedGustMPH,Humidity,HourlyPrecipIn,Conditions,Clouds,dailyrainin,SoftwareType,DateUTC
2013-07-12 06:18:00,45.5,39.3,29.58,South,180,0.0,0.0,79,0.00,,,0.00,WUHU216HW,2013-07-12 14:18:00,
2013-07-12 06:23:00,46.0,40.2,29.58,South,180,0.0,0.0,80,0.00,,,0.00,WUHU216HW,2013-07-12 14:23:00,
2013-07-12 06:28:00,47.1,41.2,29.57,South,180,0.0,0.0,80,0.00,,,0.00,WUHU216HW,2013-07-12 14:28:00,
2013-07-12 06:33:00,49.6,43.7,29.58,South,180,0.0,0.0,79,0.00,,,0.00,WUHU216HW,2013-07-12 14:33:00,
2013-07-12 06:38:00,53.0,46.0,29.58,South,180,0.0,0.0,77,0.00,,,0.00,WUHU216HW,2013-07-12 14:38:00,
2013-07-12 06:43:00,56.3,47.7,29.57,South,180,0.0,0.0,73,0.00,,,0.00,WUHU216HW,2013-07-12 14:43:00,
2013-07-12 06:48:00,60.8,48.9,29.58,South,180,0.0,0.0,66,0.00,,,0.00,WUHU216HW,2013-07-12 14:48:00,
2013-07-12 06:54:00,63.1,50.2,29.58,South,180,0.0,0.0,63,0.00,,,0.00,WUHU216HW,2013-07-12 14:54:00,
2013-07-12 06:59:00,64.5,50.3,29.58,ESE,113,0.0,0.0,60,0.00,,,0.00,WUHU216HW,2013-07-12 14:59:00,
2013-07-12 07:04:00,64.9,49.7,29.58,NE,45,0.0,0.0,58,0.00,,,0.00,WUHU216HW,2013-07-12 15:04:00,
2013-07-12 07:09:00,64.7,49.0,29.58,NE,45,0.0,0.0,57,0.00,,,0.00,WUHU216HW,2013-07-12 15:09:00,
2013-07-12 07:14:00,63.6,48.0,29.58,NNE,23,0.0,0.0,57,0.00,,,0.00,WUHU216HW,2013-07-12 15:14:00,
2013-07-12 07:19:00,63.6,49.0,29.58,NNE,23,0.0,0.0,59,0.00,,,0.00,WUHU216HW,2013-07-12 15:19:00,
2013-07-12 07:24:00,64.4,49.2,29.58,NE,45,0.0,0.0,58,0.00,,,0.00,WUHU216HW,2013-07-12 15:24:00,
2013-07-12 07:29:00,64.5,49.3,29.58,NE,45,0.0,0.0,58,0.00,,,0.00,WUHU216HW,2013-07-12 15:29:00,
2013-07-12 07:34:00,66.2,50.2,29.58,NE,45,0.0,0.0,58,0.00,,,0.00,WUHU216HW,2013-07-12 15:34:00,
2013-07-12 07:39:00,68.1,51.8,29.58,NE,45,0.0,0.0,56,0.00,,,0.00,WUHU216HW,2013-07-12 15:39:00,
2013-07-12 07:44:00,70.3,52.8,29.58,NE,45,0.0,0.0,54,0.00,,,0.00,WUHU216HW,2013-07-12 15:44:00,
2013-07-12 07:49:00,71.9,52.9,29.58,NE,45,0.0,0.0,51,0.00,,,0.00,WUHU216HW,2013-07-12 15:49:00,
2013-07-12 07:54:00,71.4,52.3,29.58,NE,45,0.0,0.0,51,0.00,,,0.00,WUHU216HW,2013-07-12 15:54:00,
2013-07-12 07:59:00,70.3,51.8,29.58,NNW,338,0.0,0.0,52,0.00,,,0.00,WUHU216HW,2013-07-12 15:59:00,
2013-07-12 08:04:00,67.4,49.7,29.58,NNW,338,0.0,0.0,53,0.00,,,0.00,WUHU216HW,2013-07-12 16:04:00,
2013-07-12 08:09:00,65.8,49.1,29.58,NNW,338,0.0,0.0,55,0.00,,,0.00,WUHU216HW,2013-07-12 16:09:00,
2013-07-12 08:14:00,64.2,48.5,29.58,NNW,338,0.0,0.0,57,0.00,,,0.00,WUHU216HW,2013-07-12 16:14:00,
2013-07-12 08:19:00,62.9,47.9,29.58,NNW,338,0.0,0.0,58,0.00,,,0.00,WUHU216HW,2013-07-12 16:19:00,
2013-07-12 08:24:00,62.4,47.9,29.58,NNW,338,0.0,0.0,59,0.00,,,0.00,WUHU216HW,2013-07-12 16:24:00,
2013-07-12 08:29:00,62.2,48.6,29.58,North,0,0.0,0.0,61,0.00,,,0.00,WUHU216HW,2013-07-12 16:29:00,
2013-07-12 08:34:00,62.4,49.2,29.58,North,0,0.0,0.0,62,0.00,,,0.00,WUHU216HW,2013-07-12 16:34:00,
2013-07-12 08:39:00,62.6,49.3,29.58,North,0,0.0,0.0,62,0.00,,,0.00,WUHU216HW,2013-07-12 16:39:00,
2013-07-12 08:44:00,62.7,49.5,29.58,North,0,0.0,0.0,62,0.00,,,0.00,WUHU216HW,2013-07-12 16:44:00,
2013-07-12 08:49:00,62.9,49.8,29.58,North,0,0.0,0.4,62,0.00,,,0.00,WUHU216HW,2013-07-12 16:49:00,
2013-07-12 08:54:00,63.5,50.6,29.58,NW,315,0.0,0.4,63,0.00,,,0.00,WUHU216HW,2013-07-12 16:54:00,
2013-07-12 08:59:00,64.0,51.1,29.58,WNW,293,0.0,0.0,63,0.00,,,0.00,WUHU216HW,2013-07-12 16:59:00,
2013-07-12 09:04:00,64.5,50.9,29.58,WNW,293,2.6,2.6,61,0.00,,,0.00,WUHU216HW,2013-07-12 17:04:00,
2013-07-12 09:09:00,65.3,51.0,29.58,WNW,293,0.0,2.6,60,0.00,,,0.00,WUHU216HW,2013-07-12 17:09:00,
2013-07-12 09:14:00,66.0,51.8,29.58,NNW,338,0.0,2.9,60,0.00,,,0.00,WUHU216HW,2013-07-12 17:14:00,
2013-07-12 09:19:00,66.0,51.3,29.58,WNW,293,0.0,2.9,59,0.00,,,0.00,WUHU216HW,2013-07-12 17:19:00,
2013-07-12 09:24:00,66.0,51.3,29.58,NW,315,2.2,2.2,59,0.00,,,0.00,WUHU216HW,2013-07-12 17:24:00,
2013-07-12 09:29:00,66.3,51.6,29.58,NNW,338,0.6,2.2,59,0.00,,,0.00,WUHU216HW,2013-07-12 17:29:00,
2013-07-12 09:34:00,66.7,51.4,29.58,SSW,203,0.0,2.2,58,0.00,,,0.00,WUHU216HW,2013-07-12 17:34:00,
2013-07-12 09:39:00,66.9,52.1,29.57,WNW,293,0.0,0.0,59,0.00,,,0.00,WUHU216HW,2013-07-12 17:39:00,
2013-07-12 09:44:00,67.8,52.9,29.57,WNW,293,0.0,0.0,59,0.00,,,0.00,WUHU216HW,2013-07-12 17:44:00,
2013-07-12 09:50:00,68.1,52.7,29.57,NW,315,0.0,0.0,58,0.00,,,0.00,WUHU216HW,2013-07-12 17:50:00,
2013-07-12 09:55:00,68.7,52.8,29.57,WNW,293,0.0,0.0,57,0.00,,,0.00,WUHU216HW,2013-07-12 17:55:00,
2013-07-12 10:00:00,69.4,53.5,29.58,NW,315,0.0,3.3,57,0.00,,,0.00,WUHU216HW,2013-07-12 18:00:00,
2013-07-12 10:05:00,69.8,53.8,29.57,NW,315,0.0,3.3,57,0.00,,,0.00,WUHU216HW,2013-07-12 18:05:00,
2013-07-12 10:10:00,70.3,54.3,29.57,NNW,338,0.0,0.0,57,0.00,,,0.00,WUHU216HW,2013-07-12 18:10:00,
2013-07-12 10:15:00,75.0,57.2,29.57,WNW,293,4.2,4.2,54,0.00,,,0.00,WUHU216HW,2013-07-12 18:15:00,
2013-07-12 10:20:00,80.0,59.1,29.57,WNW,293,2.9,4.2,49,0.00,,,0.00,WUHU216HW,2013-07-12 18:20:00,
2013-07-12 10:25:00,84.5,60.8,29.57,NNW,338,0.0,4.2,45,0.00,,,0.00,WUHU216HW,2013-07-12 18:25:00,
2013-07-12 10:30:00,89.4,61.1,29.57,NW,315,0.0,0.0,39,0.00,,,0.00,WUHU216HW,2013-07-12 18:30:00,
2013-07-12 10:35:00,91.9,60.9,29.57,WNW,293,2.2,2.2,36,0.00,,,0.00,WUHU216HW,2013-07-12 18:35:00,
2013-07-12 10:40:00,93.5,61.5,29.57,NW,315,4.0,4.0,35,0.00,,,0.00,WUHU216HW,2013-07-12 18:40:00,
2013-07-12 10:45:00,95.5,61.6,29.57,NNW,338,0.0,4.0,33,0.00,,,0.00,WUHU216HW,2013-07-12 18:45:00,
2013-07-12 10:50:00,95.5,61.6,29.57,NNW,338,0.0,2.4,33,0.00,,,0.00,WUHU216HW,2013-07-12 18:50:00,
2013-07-12 10:55:00,93.3,59.7,29.57,North,0,0.0,2.4,33,0.00,,,0.00,WUHU216HW,2013-07-12 18:55:00,
2013-07-12 11:00:00,88.8,57.4,29.57,NW,315,2.9,2.9,35,0.00,,,0.00,WUHU216HW,2013-07-12 19:00:00,
2013-07-12 11:05:00,86.7,56.4,29.57,SW,225,0.0,4.4,36,0.00,,,0.00,WUHU216HW,2013-07-12 19:05:00,
2013-07-12 11:11:00,86.0,56.6,29.57,WNW,293,1.5,4.4,37,0.00,,,0.00,WUHU216HW,2013-07-12 19:11:00,
2013-07-12 11:16:00,85.1,55.8,29.57,WNW,293,0.0,1.5,37,0.00,,,0.00,WUHU216HW,2013-07-12 19:16:00,
2013-07-12 11:21:00,83.1,54.8,29.57,South,180,0.8,1.5,38,0.00,,,0.00,WUHU216HW,2013-07-12 19:21:00,
2013-07-12 11:26:00,82.2,54.8,29.57,West,270,2.0,3.1,39,0.00,,,0.00,WUHU216HW,2013-07-12 19:26:00,
2013-07-12 11:31:00,82.9,55.4,29.57,SW,225,5.5,5.5,39,0.00,,,0.00,WUHU216HW,2013-07-12 19:31:00,
2013-07-12 11:36:00,82.4,54.9,29.56,West,270,1.3,5.5,39,0.00,,,0.00,WUHU216HW,2013-07-12 19:36:00,
2013-07-12 11:41:00,81.1,53.8,29.56,WSW,248,0.6,2.6,39,0.00,,,0.00,WUHU216HW,2013-07-12 19:41:00,
2013-07-12 11:46:00,79.8,53.4,29.56,SW,225,0.0,2.6,40,0.00,,,0.00,WUHU216HW,2013-07-12 19:46:00,
2013-07-12 11:51:00,78.6,53.5,29.56,NNW,338,2.9,2.9,42,0.00,,,0.00,WUHU216HW,2013-07-12 19:51:00,
2013-07-12 11:56:00,77.9,52.9,29.57,WSW,248,0.0,2.9,42,0.00,,,0.00,WUHU216HW,2013-07-12 19:56:00,
2013-07-12 12:01:00,77.9,53.5,29.56,NNW,338,1.1,2.9,43,0.00,,,0.00,WUHU216HW,2013-07-12 20:01:00,
2013-07-12 12:06:00,80.2,55.0,29.56,WNW,293,2.9,2.9,42,0.00,,,0.00,WUHU216HW,2013-07-12 20:06:00,
2013-07-12 12:11:00,83.8,57.6,29.56,WNW,293,1.1,2.9,41,0.00,,,0.00,WUHU216HW,2013-07-12 20:11:00,
2013-07-12 12:16:00,89.2,58.5,29.56,NW,315,1.1,1.1,36,0.00,,,0.00,WUHU216HW,2013-07-12 20:16:00,
2013-07-12 12:21:00,91.7,59.2,29.56,WNW,293,0.0,1.3,34,0.00,,,0.00,WUHU216HW,2013-07-12 20:21:00,
2013-07-12 12:27:00,93.7,60.1,29.56,North,0,0.0,1.3,33,0.00,,,0.00,WUHU216HW,2013-07-12 20:27:00,
2013-07-12 12:32:00,95.7,61.0,29.56,NW,315,1.7,6.7,32,0.00,,,0.00,WUHU216HW,2013-07-12 20:32:00,
2013-07-12 12:37:00,96.4,60.7,29.56,NNE,23,0.0,6.7,31,0.00,,,0.00,WUHU216HW,2013-07-12 20:37:00,
2013-07-12 12:42:00,96.9,61.2,29.56,NW,315,2.0,4.0,31,0.00,,,0.00,WUHU216HW,2013-07-12 20:42:00,
2013-07-12 12:47:00,96.9,60.4,29.56,North,0,2.0,4.0,30,0.00,,,0.00,WUHU216HW,2013-07-12 20:47:00,
2013-07-12 12:52:00,97.5,60.9,29.56,WNW,293,2.2,3.1,30,0.00,,,0.00,WUHU216HW,2013-07-12 20:52:00,
2013-07-12 12:57:00,97.5,60.9,29.56,West,270,0.2,2.2,30,0.00,,,0.00,WUHU216HW,2013-07-12 20:57:00,
2013-07-12 13:02:00,97.5,60.9,29.55,NNW,338,6.2,6.2,30,0.00,,,0.00,WUHU216HW,2013-07-12 21:02:00,
2013-07-12 13:07:00,97.5,60.9,29.55,NNE,23,3.3,6.2,30,0.00,,,0.00,WUHU216HW,2013-07-12 21:07:00,
2013-07-12 13:12:00,96.4,59.9,29.56,WSW,248,1.3,6.2,30,0.00,,,0.00,WUHU216HW,2013-07-12 21:12:00,
2013-07-12 13:17:00,95.7,59.3,29.55,WNW,293,1.3,2.9,30,0.00,,,0.00,WUHU216HW,2013-07-12 21:17:00,
2013-07-12 13:22:00,96.0,59.6,29.55,West,270,0.4,2.9,30,0.00,,,0.00,WUHU216HW,2013-07-12 21:22:00,
2013-07-12 13:27:00,95.7,59.3,29.55,West,270,1.7,2.6,30,0.00,,,0.00,WUHU216HW,2013-07-12 21:27:00,
2013-07-12 13:32:00,96.0,59.6,29.55,NW,315,0.0,1.7,30,0.00,,,0.00,WUHU216HW,2013-07-12 21:32:00,
2013-07-12 13:37:00,96.0,59.6,29.55,WSW,248,0.0,7.8,30,0.00,,,0.00,WUHU216HW,2013-07-12 21:37:00,
2013-07-12 13:42:00,95.5,58.1,29.55,SSW,203,2.9,7.8,29,0.00,,,0.00,WUHU216HW,2013-07-12 21:42:00,
2013-07-12 13:47:00,93.0,57.0,29.55,West,270,6.4,6.4,30,0.00,,,0.00,WUHU216HW,2013-07-12 21:47:00,
2013-07-12 13:52:00,92.8,57.7,29.55,NW,315,3.3,6.4,31,0.00,,,0.00,WUHU216HW,2013-07-12 21:52:00,
2013-07-12 13:58:00,92.8,57.7,29.55,SW,225,0.0,6.9,31,0.00,,,0.00,WUHU216HW,2013-07-12 21:58:00,
2013-07-12 14:03:00,93.2,58.0,29.55,SW,225,3.1,6.9,31,0.00,,,0.00,WUHU216HW,2013-07-12 22:03:00,
2013-07-12 14:08:00,93.7,57.6,29.55,SW,225,8.7,8.7,30,0.00,,,0.00,WUHU216HW,2013-07-12 22:08:00,
2013-07-12 14:13:00,93.3,57.3,29.55,SSW,203,5.5,8.7,30,0.00,,,0.00,WUHU216HW,2013-07-12 22:13:00,
2013-07-12 14:18:00,93.0,57.8,29.55,West,270,1.5,8.7,31,0.00,,,0.00,WUHU216HW,2013-07-12 22:18:00,
2013-07-12 14:23:00,93.5,58.3,29.55,WSW,248,0.0,5.5,31,0.00,,,0.00,WUHU216HW,2013-07-12 22:23:00,
2013-07-12 14:28:00,93.7,58.4,29.55,NNW,338,1.3,5.5,31,0.00,,,0.00,WUHU216HW,2013-07-12 22:28:00,
2013-07-12 14:33:00,93.9,58.6,29.54,WNW,293,0.0,5.5,31,0.00,,,0.00,WUHU216HW,2013-07-12 22:33:00,
2013-07-12 14:38:00,94.2,58.1,29.54,NW,315,6.2,6.2,30,0.00,,,0.00,WUHU216HW,2013-07-12 22:38:00,
2013-07-12 14:43:00,94.8,58.6,29.55,NW,315,4.2,6.2,30,0.00,,,0.00,WUHU216HW,2013-07-12 22:43:00,
2013-07-12 14:48:00,95.5,59.2,29.55,WNW,293,7.3,7.3,30,0.00,,,0.00,WUHU216HW,2013-07-12 22:48:00,
2013-07-12 14:53:00,95.5,59.2,29.54,WNW,293,4.0,7.3,30,0.00,,,0.00,WUHU216HW,2013-07-12 22:53:00,
2013-07-12 14:59:00,95.3,59.1,29.54,West,270,2.2,4.0,30,0.00,,,0.00,WUHU216HW,2013-07-12 22:59:00,
2013-07-12 15:04:00,95.1,58.9,29.54,WSW,248,0.6,4.2,30,0.00,,,0.00,WUHU216HW,2013-07-12 23:04:00,
2013-07-12 15:09:00,95.5,59.2,29.54,West,270,2.0,4.2,30,0.00,,,0.00,WUHU216HW,2013-07-12 23:09:00,
2013-07-12 15:14:00,95.5,59.2,29.54,WNW,293,4.6,4.6,30,0.00,,,0.00,WUHU216HW,2013-07-12 23:14:00,
2013-07-12 15:19:00,95.3,59.1,29.54,West,270,0.0,4.6,30,0.00,,,0.00,WUHU216HW,2013-07-12 23:19:00,
2013-07-12 15:24:00,95.3,59.1,29.53,West,270,0.6,1.7,30,0.00,,,0.00,WUHU216HW,2013-07-12 23:24:00,
2013-07-12 15:29:00,95.1,58.9,29.53,West,270,3.3,4.0,30,0.00,,,0.00,WUHU216HW,2013-07-12 23:29:00,
2013-07-12 15:34:00,94.8,58.6,29.53,WNW,293,2.0,4.0,30,0.00,,,0.00,WUHU216HW,2013-07-12 23:34:00,
2013-07-12 15:39:00,94.4,58.3,29.53,WSW,248,3.1,3.5,30,0.00,,,0.00,WUHU216HW,2013-07-12 23:39:00,
2013-07-12 15:44:00,93.9,57.8,29.53,WNW,293,0.0,13.1,30,0.00,,,0.00,WUHU216HW,2013-07-12 23:44:00,
2013-07-12 15:49:00,92.4,56.6,29.53,SW,225,4.0,13.1,30,0.00,,,0.00,WUHU216HW,2013-07-12 23:49:00,
2013-07-12 15:54:00,92.3,57.2,29.53,WNW,293,0.0,5.1,31,0.00,,,0.00,WUHU216HW,2013-07-12 23:54:00,
2013-07-12 15:59:00,91.9,56.9,29.53,West,270,0.0,4.0,31,0.00,,,0.00,WUHU216HW,2013-07-12 23:59:00,
2013-07-12 16:04:00,91.4,56.5,29.53,WSW,248,0.0,3.1,31,0.00,,,0.00,WUHU216HW,2013-07-13 00:04:00,
2013-07-12 16:09:00,91.2,56.3,29.53,West,270,2.0,3.1,31,0.00,,,0.00,WUHU216HW,2013-07-13 00:09:00,
2013-07-12 16:14:00,91.0,56.2,29.53,WNW,293,2.9,4.6,31,0.00,,,0.00,WUHU216HW,2013-07-13 00:14:00,
2013-07-12 16:19:00,89.4,55.5,29.53,West,270,0.4,8.5,32,0.00,,,0.00,WUHU216HW,2013-07-13 00:19:00,
2013-07-12 16:24:00,88.7,54.9,29.53,WSW,248,0.8,8.5,32,0.00,,,0.00,WUHU216HW,2013-07-13 00:24:00,
2013-07-12 16:29:00,88.5,54.7,29.53,WSW,248,5.8,5.8,32,0.00,,,0.00,WUHU216HW,2013-07-13 00:29:00,
2013-07-12 16:34:00,86.7,53.2,29.53,NW,315,8.2,8.2,32,0.00,,,0.00,WUHU216HW,2013-07-13 00:34:00,
2013-07-12 16:40:00,85.2,52.8,29.53,NNW,338,2.9,8.2,33,0.00,,,0.00,WUHU216HW,2013-07-13 00:40:00,
2013-07-12 16:45:00,84.0,51.9,29.53,WNW,293,4.4,8.2,34,0.00,,,0.00,WUHU216HW,2013-07-13 00:45:00,
2013-07-12 16:50:00,82.7,52.1,29.53,West,270,3.5,7.3,35,0.00,,,0.00,WUHU216HW,2013-07-13 00:50:00,
2013-07-12 16:55:00,81.6,51.9,29.53,West,270,8.2,8.2,36,0.00,,,0.00,WUHU216HW,2013-07-13 00:55:00,
2013-07-12 17:00:00,81.1,51.4,29.53,WSW,248,3.5,8.2,36,0.00,,,0.00,WUHU216HW,2013-07-13 01:00:00,
2013-07-12 17:05:00,80.7,51.9,29.53,WNW,293,2.2,8.2,37,0.00,,,0.00,WUHU216HW,2013-07-13 01:05:00,
2013-07-12 17:10:00,80.4,51.6,29.52,West,270,0.0,5.8,37,0.00,,,0.00,WUHU216HW,2013-07-13 01:10:00,
2013-07-12 17:15:00,80.4,52.4,29.53,NNW,338,3.1,6.2,38,0.00,,,0.00,WUHU216HW,2013-07-13 01:15:00,
2013-07-12 17:20:00,80.2,52.2,29.53,West,270,4.4,6.2,38,0.00,,,0.00,WUHU216HW,2013-07-13 01:20:00,
2013-07-12 17:25:00,79.8,51.9,29.53,NW,315,9.1,9.1,38,0.00,,,0.00,WUHU216HW,2013-07-13 01:25:00,
2013-07-12 17:30:00,79.7,51.7,29.53,NW,315,0.0,9.1,38,0.00,,,0.00,WUHU216HW,2013-07-13 01:30:00,
2013-07-12 17:35:00,79.7,51.7,29.53,West,270,8.5,9.1,38,0.00,,,0.00,WUHU216HW,2013-07-13 01:35:00,
2013-07-12 17:40:00,79.5,51.6,29.53,WNW,293,2.2,8.5,38,0.00,,,0.00,WUHU216HW,2013-07-13 01:40:00,
2013-07-12 17:45:00,79.3,51.4,29.53,West,270,2.9,3.8,38,0.00,,,0.00,WUHU216HW,2013-07-13 01:45:00,
2013-07-12 17:50:00,79.3,51.4,29.53,West,270,2.4,3.8,38,0.00,,,0.00,WUHU216HW,2013-07-13 01:50:00,
2013-07-12 17:55:00,79.3,51.4,29.53,West,270,5.5,7.6,38,0.00,,,0.00,WUHU216HW,2013-07-13 01:55:00,
2013-07-12 18:01:00,79.3,51.4,29.53,NW,315,11.4,11.4,38,0.00,,,0.00,WUHU216HW,2013-07-13 02:01:00,
2013-07-12 18:06:00,79.5,51.6,29.53,NW,315,6.7,11.4,38,0.00,,,0.00,WUHU216HW,2013-07-13 02:06:00,
2013-07-12 18:11:00,79.7,51.7,29.53,WSW,248,2.0,6.9,38,0.00,,,0.00,WUHU216HW,2013-07-13 02:11:00,
2013-07-12 18:16:00,79.8,51.9,29.53,WSW,248,3.1,6.7,38,0.00,,,0.00,WUHU216HW,2013-07-13 02:16:00,
2013-07-12 18:21:00,80.4,52.4,29.53,West,270,0.6,5.3,38,0.00,,,0.00,WUHU216HW,2013-07-13 02:21:00,
2013-07-12 18:26:00,80.7,52.7,29.53,WSW,248,1.1,5.3,38,0.00,,,0.00,WUHU216HW,2013-07-13 02:26:00,
2013-07-12 18:31:00,80.9,52.1,29.53,West,270,9.6,9.6,37,0.00,,,0.00,WUHU216HW,2013-07-13 02:31:00,
2013-07-12 18:36:00,80.4,52.4,29.53,West,270,6.4,9.6,38,0.00,,,0.00,WUHU216HW,2013-07-13 02:36:00,
2013-07-12 18:41:00,79.8,52.7,29.53,WSW,248,4.2,6.4,39,0.00,,,0.00,WUHU216HW,2013-07-13 02:41:00,
2013-07-12 18:46:00,79.7,51.7,29.54,South,180,4.2,6.4,38,0.00,,,0.00,WUHU216HW,2013-07-13 02:46:00,
2013-07-12 18:51:00,78.6,50.8,29.53,West,270,2.9,4.2,38,0.00,,,0.00,WUHU216HW,2013-07-13 02:51:00,
2013-07-12 18:56:00,78.0,51.0,29.53,SSW,203,0.0,4.2,39,0.00,,,0.00,WUHU216HW,2013-07-13 02:56:00,
2013-07-12 19:01:00,77.5,51.3,29.53,WNW,293,4.2,4.2,40,0.00,,,0.00,WUHU216HW,2013-07-13 03:01:00,
2013-07-12 19:06:00,76.6,51.1,29.53,West,270,0.0,4.2,41,0.00,,,0.00,WUHU216HW,2013-07-13 03:06:00,
2013-07-12 19:11:00,76.1,50.7,29.54,WNW,293,2.0,4.2,41,0.00,,,0.00,WUHU216HW,2013-07-13 03:11:00,
2013-07-12 19:16:00,75.3,50.6,29.54,West,270,0.0,4.9,42,0.00,,,0.00,WUHU216HW,2013-07-13 03:16:00,
2013-07-12 19:21:00,74.8,50.1,29.54,West,270,0.0,4.9,42,0.00,,,0.00,WUHU216HW,2013-07-13 03:21:00,
2013-07-12 19:27:00,73.9,49.9,29.54,West,270,0.0,4.4,43,0.00,,,0.00,WUHU216HW,2013-07-13 03:27:00,
2013-07-12 19:32:00,73.4,49.4,29.54,WSW,248,0.0,4.4,43,0.00,,,0.00,WUHU216HW,2013-07-13 03:32:00,
2013-07-12 19:37:00,73.0,49.7,29.54,WSW,248,1.3,1.3,44,0.00,,,0.00,WUHU216HW,2013-07-13 03:37:00,
2013-07-12 19:42:00,72.6,49.3,29.54,West,270,0.6,1.3,44,0.00,,,0.00,WUHU216HW,2013-07-13 03:42:00,
2013-07-12 19:47:00,72.5,49.2,29.54,WSW,248,0.0,1.7,44,0.00,,,0.00,WUHU216HW,2013-07-13 03:47:00,
2013-07-12 19:52:00,72.5,49.2,29.54,WSW,248,3.3,3.3,44,0.00,,,0.00,WUHU216HW,2013-07-13 03:52:00,
2013-07-12 19:57:00,72.5,49.8,29.54,NW,315,5.8,5.8,45,0.00,,,0.00,WUHU216HW,2013-07-13 03:57:00,
2013-07-12 20:01:00,72.5,49.8,29.54,NW,315,2.4,5.8,45,0.00,,,0.00,WUHU216HW,2013-07-13 04:01:00,
2013-07-12 20:02:00,72.5,49.8,29.54,NW,315,2.4,5.8,45,0.00,,,0.00,WUHU216HW,2013-07-13 04:02:00,
2013-07-12 20:07:00,72.3,49.6,29.54,SW,225,2.6,5.8,45,0.00,,,0.00,WUHU216HW,2013-07-13 04:07:00,
2013-07-12 20:12:00,72.3,49.6,29.54,WSW,248,0.0,2.6,45,0.00,,,0.00,WUHU216HW,2013-07-13 04:12:00,
2013-07-12 20:17:00,72.5,49.8,29.55,SSW,203,3.5,3.5,45,0.00,,,0.00,WUHU216HW,2013-07-13 04:17:00,
2013-07-12 20:22:00,72.3,49.6,29.55,South,180,2.6,3.5,45,0.00,,,0.00,WUHU216HW,2013-07-13 04:22:00,
2013-07-12 20:27:00,72.1,49.4,29.55,SSE,158,1.1,2.6,45,0.00,,,0.00,WUHU216HW,2013-07-13 04:27:00,
2013-07-12 20:32:00,71.7,48.5,29.55,SW,225,0.0,1.7,44,0.00,,,0.00,WUHU216HW,2013-07-13 04:32:00,
2013-07-12 20:37:00,71.4,48.2,29.56,SE,135,1.5,1.7,44,0.00,,,0.00,WUHU216HW,2013-07-13 04:37:00,
2013-07-12 20:42:00,71.2,49.2,29.56,SSW,203,0.0,1.7,46,0.00,,,0.00,WUHU216HW,2013-07-13 04:42:00,
2013-07-12 20:47:00,71.2,48.6,29.56,South,180,0.0,2.4,45,0.00,,,0.00,WUHU216HW,2013-07-13 04:47:00,
2013-07-12 20:52:00,70.7,48.7,29.55,South,180,0.0,3.5,46,0.00,,,0.00,WUHU216HW,2013-07-13 04:52:00,
2013-07-12 20:57:00,70.7,48.7,29.55,West,270,0.0,3.5,46,0.00,,,0.00,WUHU216HW,2013-07-13 04:57:00,
2013-07-12 21:02:00,70.7,49.3,29.56,WSW,248,0.0,0.6,47,0.00,,,0.00,WUHU216HW,2013-07-13 05:02:00,
2013-07-12 21:07:00,70.7,48.7,29.55,SSW,203,1.7,1.7,46,0.00,,,0.00,WUHU216HW,2013-07-13 05:07:00,
2013-07-12 21:12:00,70.5,48.6,29.56,SW,225,0.0,1.7,46,0.00,,,0.00,WUHU216HW,2013-07-13 05:12:00,
2013-07-12 21:17:00,70.3,48.4,29.55,WSW,248,4.6,4.6,46,0.00,,,0.00,WUHU216HW,2013-07-13 05:17:00,
2013-07-12 21:22:00,70.1,48.4,29.55,WSW,248,0.0,4.6,46,0.00,,,0.00,WUHU216HW,2013-07-13 05:22:00,
2013-07-12 21:27:00,70.1,48.9,29.55,WSW,248,0.2,0.2,47,0.00,,,0.00,WUHU216HW,2013-07-13 05:27:00,
2013-07-12 21:32:00,69.9,48.7,29.55,SW,225,0.0,0.2,47,0.00,,,0.00,WUHU216HW,2013-07-13 05:32:00,
2013-07-12 21:37:00,69.9,48.7,29.56,WSW,248,0.0,3.1,47,0.00,,,0.00,WUHU216HW,2013-07-13 05:37:00,
2013-07-12 21:42:00,69.9,48.7,29.56,WSW,248,0.0,3.1,47,0.00,,,0.00,WUHU216HW,2013-07-13 05:42:00,
2013-07-12 21:47:00,69.9,48.7,29.56,WSW,248,0.0,3.3,47,0.00,,,0.00,WUHU216HW,2013-07-13 05:47:00,
2013-07-12 21:52:00,69.8,48.5,29.55,WNW,293,0.0,3.3,47,0.00,,,0.00,WUHU216HW,2013-07-13 05:52:00,